sensor_id;sensor_type;location;lat;lon;timestamp;temperature;humidity
47382;DHT22;33128;51.580;5.170;2023-02-12T00:02:14;8.60;99.90
47382;DHT22;33128;51.580;5.170;2023-02-12T00:04:40;8.60;99.90
47382;DHT22;33128;51.580;5.170;2023-02-12T00:07:05;8.70;99.90
47382;DHT22;33128;51.580;5.170;2023-02-12T00:09:31;8.70;99.90
47382;DHT22;33128;51.580;5.170;2023-02-12T00:11:57;8.80;99.90
47382;DHT22;33128;51.580;5.170;2023-02-12T00:14:23;8.70;99.90
47382;DHT22;33128;51.580;5.170;2023-02-12T00:16:48;8.80;99.90
47382;DHT22;33128;51.580;5.170;2023-02-12T00:19:14;9.00;99.90
47382;DHT22;33128;51.580;5.170;2023-02-12T00:21:39;9.20;99.90
47382;DHT22;33128;51.580;5.170;2023-02-12T00:24:05;9.00;99.90
47382;DHT22;33128;51.580;5.170;2023-02-12T00:26:31;8.70;99.90
47382;DHT22;33128;51.580;5.170;2023-02-12T00:28:56;8.60;99.90
47382;DHT22;33128;51.580;5.170;2023-02-12T00:31:42;8.70;99.90
47382;DHT22;33128;51.580;5.170;2023-02-12T00:34:12;8.60;99.90
47382;DHT22;33128;51.580;5.170;2023-02-12T00:36:38;8.60;99.90
47382;DHT22;33128;51.580;5.170;2023-02-12T00:39:03;8.70;99.90
47382;DHT22;33128;51.580;5.170;2023-02-12T00:41:29;8.60;99.90
47382;DHT22;33128;51.580;5.170;2023-02-12T00:43:55;8.50;99.90
47382;DHT22;33128;51.580;5.170;2023-02-12T00:46:21;8.50;99.90
47382;DHT22;33128;51.580;5.170;2023-02-12T00:48:46;8.50;99.90
47382;DHT22;33128;51.580;5.170;2023-02-12T00:51:12;8.50;99.90
47382;DHT22;33128;51.580;5.170;2023-02-12T00:53:39;8.40;99.90
47382;DHT22;33128;51.580;5.170;2023-02-12T00:56:04;8.50;99.90
47382;DHT22;33128;51.580;5.170;2023-02-12T00:58:30;8.50;99.90
47382;DHT22;33128;51.580;5.170;2023-02-12T01:00:58;8.50;99.90
47382;DHT22;33128;51.580;5.170;2023-02-12T01:03:24;8.50;99.90
47382;DHT22;33128;51.580;5.170;2023-02-12T01:05:50;8.50;99.90
47382;DHT22;33128;51.580;5.170;2023-02-12T01:08:16;8.80;99.90
47382;DHT22;33128;51.580;5.170;2023-02-12T01:10:42;8.70;99.90
47382;DHT22;33128;51.580;5.170;2023-02-12T01:13:11;8.60;99.90
47382;DHT22;33128;51.580;5.170;2023-02-12T01:15:37;8.70;99.90
47382;DHT22;33128;51.580;5.170;2023-02-12T01:18:03;8.40;99.90
47382;DHT22;33128;51.580;5.170;2023-02-12T01:20:28;8.40;99.90
47382;DHT22;33128;51.580;5.170;2023-02-12T01:22:54;8.50;99.90
47382;DHT22;33128;51.580;5.170;2023-02-12T01:25:22;8.50;99.90
47382;DHT22;33128;51.580;5.170;2023-02-12T01:27:47;8.50;99.90
47382;DHT22;33128;51.580;5.170;2023-02-12T01:30:14;8.50;99.90
47382;DHT22;33128;51.580;5.170;2023-02-12T01:32:40;8.60;99.90
47382;DHT22;33128;51.580;5.170;2023-02-12T01:35:07;9.20;99.90
47382;DHT22;33128;51.580;5.170;2023-02-12T01:37:35;9.10;99.90
47382;DHT22;33128;51.580;5.170;2023-02-12T01:40:02;8.80;99.90
47382;DHT22;33128;51.580;5.170;2023-02-12T01:42:28;8.70;99.90
47382;DHT22;33128;51.580;5.170;2023-02-12T01:47:44;8.50;99.90
47382;DHT22;33128;51.580;5.170;2023-02-12T01:50:14;8.30;99.90
47382;DHT22;33128;51.580;5.170;2023-02-12T01:52:44;8.50;99.90
47382;DHT22;33128;51.580;5.170;2023-02-12T01:55:11;8.80;99.90
47382;DHT22;33128;51.580;5.170;2023-02-12T01:57:40;8.80;99.90
47382;DHT22;33128;51.580;5.170;2023-02-12T02:00:11;9.10;99.90
47382;DHT22;33128;51.580;5.170;2023-02-12T02:02:38;8.90;99.90
47382;DHT22;33128;51.580;5.170;2023-02-12T02:05:04;9.00;99.90
47382;DHT22;33128;51.580;5.170;2023-02-12T02:07:31;9.10;99.90
47382;DHT22;33128;51.580;5.170;2023-02-12T02:09:57;8.70;99.90
47382;DHT22;33128;51.580;5.170;2023-02-12T02:12:26;8.60;99.90
47382;DHT22;33128;51.580;5.170;2023-02-12T02:15:10;8.60;99.90
47382;DHT22;33128;51.580;5.170;2023-02-12T02:20:35;8.40;99.90
47382;DHT22;33128;51.580;5.170;2023-02-12T02:31:29;8.00;99.90
47382;DHT22;33128;51.580;5.170;2023-02-12T02:34:10;7.80;99.90
47382;DHT22;33128;51.580;5.170;2023-02-12T02:42:55;7.80;99.90
47382;DHT22;33128;51.580;5.170;2023-02-12T02:45:33;7.80;99.90
47382;DHT22;33128;51.580;5.170;2023-02-12T02:48:23;8.10;99.90
47382;DHT22;33128;51.580;5.170;2023-02-12T02:51:13;7.80;99.90
47382;DHT22;33128;51.580;5.170;2023-02-12T02:56:42;8.10;99.90
47382;DHT22;33128;51.580;5.170;2023-02-12T02:59:15;8.40;99.90
47382;DHT22;33128;51.580;5.170;2023-02-12T03:01:47;8.10;99.90
47382;DHT22;33128;51.580;5.170;2023-02-12T03:04:21;8.10;99.90
47382;DHT22;33128;51.580;5.170;2023-02-12T03:07:01;8.10;99.90
47382;DHT22;33128;51.580;5.170;2023-02-12T03:09:37;8.30;99.90
47382;DHT22;33128;51.580;5.170;2023-02-12T03:12:17;8.30;99.90
47382;DHT22;33128;51.580;5.170;2023-02-12T03:14:58;8.40;99.90
47382;DHT22;33128;51.580;5.170;2023-02-12T03:17:36;8.30;99.90
47382;DHT22;33128;51.580;5.170;2023-02-12T03:20:11;8.20;99.90
47382;DHT22;33128;51.580;5.170;2023-02-12T03:22:45;8.20;99.90
47382;DHT22;33128;51.580;5.170;2023-02-12T03:25:12;8.40;99.90
47382;DHT22;33128;51.580;5.170;2023-02-12T03:28:07;8.50;99.90
47382;DHT22;33128;51.580;5.170;2023-02-12T03:33:48;8.60;99.90
47382;DHT22;33128;51.580;5.170;2023-02-12T03:36:32;8.70;99.90
47382;DHT22;33128;51.580;5.170;2023-02-12T03:41:47;8.50;99.90
47382;DHT22;33128;51.580;5.170;2023-02-12T03:44:22;8.70;99.90
47382;DHT22;33128;51.580;5.170;2023-02-12T03:47:14;8.30;99.90
47382;DHT22;33128;51.580;5.170;2023-02-12T03:49:48;8.30;99.90
47382;DHT22;33128;51.580;5.170;2023-02-12T03:52:17;8.40;99.90
47382;DHT22;33128;51.580;5.170;2023-02-12T03:54:43;8.10;99.90
47382;DHT22;33128;51.580;5.170;2023-02-12T03:57:13;8.20;99.90
47382;DHT22;33128;51.580;5.170;2023-02-12T03:59:40;8.20;99.90
47382;DHT22;33128;51.580;5.170;2023-02-12T04:02:06;8.40;99.90
47382;DHT22;33128;51.580;5.170;2023-02-12T04:04:32;8.10;99.90
47382;DHT22;33128;51.580;5.170;2023-02-12T04:06:58;8.20;99.90
47382;DHT22;33128;51.580;5.170;2023-02-12T04:09:25;8.30;99.90
47382;DHT22;33128;51.580;5.170;2023-02-12T04:18:06;8.20;99.90
47382;DHT22;33128;51.580;5.170;2023-02-12T04:20:38;8.20;99.90
47382;DHT22;33128;51.580;5.170;2023-02-12T04:26:05;8.00;99.90
47382;DHT22;33128;51.580;5.170;2023-02-12T04:28:42;8.00;99.90
47382;DHT22;33128;51.580;5.170;2023-02-12T04:31:35;7.90;99.90
47382;DHT22;33128;51.580;5.170;2023-02-12T04:34:29;7.90;99.90
47382;DHT22;33128;51.580;5.170;2023-02-12T04:37:05;8.00;99.90
47382;DHT22;33128;51.580;5.170;2023-02-12T04:39:35;8.10;99.90
47382;DHT22;33128;51.580;5.170;2023-02-12T04:42:02;8.00;99.90
47382;DHT22;33128;51.580;5.170;2023-02-12T04:44:33;7.90;99.90
47382;DHT22;33128;51.580;5.170;2023-02-12T04:46:59;8.00;99.90
47382;DHT22;33128;51.580;5.170;2023-02-12T04:49:26;8.00;99.90
47382;DHT22;33128;51.580;5.170;2023-02-12T04:51:51;8.20;99.90
47382;DHT22;33128;51.580;5.170;2023-02-12T04:54:19;7.90;99.90
47382;DHT22;33128;51.580;5.170;2023-02-12T04:56:45;8.20;99.90
47382;DHT22;33128;51.580;5.170;2023-02-12T04:59:12;8.10;99.90
47382;DHT22;33128;51.580;5.170;2023-02-12T05:01:38;8.00;99.90
47382;DHT22;33128;51.580;5.170;2023-02-12T05:04:05;7.90;99.90
47382;DHT22;33128;51.580;5.170;2023-02-12T05:06:35;8.20;99.90
47382;DHT22;33128;51.580;5.170;2023-02-12T05:09:01;8.30;99.90
47382;DHT22;33128;51.580;5.170;2023-02-12T05:11:26;8.00;99.90
47382;DHT22;33128;51.580;5.170;2023-02-12T05:13:52;8.10;99.90
47382;DHT22;33128;51.580;5.170;2023-02-12T05:16:19;8.00;99.90
47382;DHT22;33128;51.580;5.170;2023-02-12T05:18:45;8.30;99.90
47382;DHT22;33128;51.580;5.170;2023-02-12T05:21:14;8.30;99.90
47382;DHT22;33128;51.580;5.170;2023-02-12T05:23:41;8.00;99.90
47382;DHT22;33128;51.580;5.170;2023-02-12T05:26:15;7.90;99.90
47382;DHT22;33128;51.580;5.170;2023-02-12T05:28:40;8.10;99.90
47382;DHT22;33128;51.580;5.170;2023-02-12T05:31:08;8.00;99.90
47382;DHT22;33128;51.580;5.170;2023-02-12T05:33:34;7.80;99.90
47382;DHT22;33128;51.580;5.170;2023-02-12T05:36:10;8.20;99.90
47382;DHT22;33128;51.580;5.170;2023-02-12T05:38:36;8.10;99.90
47382;DHT22;33128;51.580;5.170;2023-02-12T05:41:07;7.90;99.90
47382;DHT22;33128;51.580;5.170;2023-02-12T05:43:33;7.80;99.90
47382;DHT22;33128;51.580;5.170;2023-02-12T05:46:00;7.80;99.90
47382;DHT22;33128;51.580;5.170;2023-02-12T05:48:26;7.80;99.90
47382;DHT22;33128;51.580;5.170;2023-02-12T05:51:01;8.00;99.90
47382;DHT22;33128;51.580;5.170;2023-02-12T05:53:27;8.10;99.90
47382;DHT22;33128;51.580;5.170;2023-02-12T05:55:52;8.00;99.90
47382;DHT22;33128;51.580;5.170;2023-02-12T05:58:18;8.30;99.90
47382;DHT22;33128;51.580;5.170;2023-02-12T06:00:44;8.30;99.90
47382;DHT22;33128;51.580;5.170;2023-02-12T06:03:09;8.00;99.90
47382;DHT22;33128;51.580;5.170;2023-02-12T06:05:35;8.10;99.90
47382;DHT22;33128;51.580;5.170;2023-02-12T06:08:00;8.10;99.90
47382;DHT22;33128;51.580;5.170;2023-02-12T06:10:26;7.80;99.90
47382;DHT22;33128;51.580;5.170;2023-02-12T06:12:54;8.10;99.90
47382;DHT22;33128;51.580;5.170;2023-02-12T06:15:20;8.00;99.90
47382;DHT22;33128;51.580;5.170;2023-02-12T06:17:46;8.10;99.90
47382;DHT22;33128;51.580;5.170;2023-02-12T06:20:11;8.10;99.90
47382;DHT22;33128;51.580;5.170;2023-02-12T06:22:37;8.00;99.90
47382;DHT22;33128;51.580;5.170;2023-02-12T06:25:03;8.20;99.90
47382;DHT22;33128;51.580;5.170;2023-02-12T06:27:29;8.40;99.90
47382;DHT22;33128;51.580;5.170;2023-02-12T06:29:55;8.40;99.90
47382;DHT22;33128;51.580;5.170;2023-02-12T06:32:20;8.50;99.90
47382;DHT22;33128;51.580;5.170;2023-02-12T06:34:46;8.50;99.90
47382;DHT22;33128;51.580;5.170;2023-02-12T06:37:12;8.70;99.90
47382;DHT22;33128;51.580;5.170;2023-02-12T06:39:38;8.50;99.90
47382;DHT22;33128;51.580;5.170;2023-02-12T06:42:04;8.40;99.90
47382;DHT22;33128;51.580;5.170;2023-02-12T06:44:29;8.20;99.90
47382;DHT22;33128;51.580;5.170;2023-02-12T06:46:55;8.10;99.90
47382;DHT22;33128;51.580;5.170;2023-02-12T06:49:22;8.10;99.90
47382;DHT22;33128;51.580;5.170;2023-02-12T06:51:51;8.00;99.90
47382;DHT22;33128;51.580;5.170;2023-02-12T06:54:17;7.80;99.90
47382;DHT22;33128;51.580;5.170;2023-02-12T06:56:43;7.70;99.90
47382;DHT22;33128;51.580;5.170;2023-02-12T06:59:13;7.70;99.90
47382;DHT22;33128;51.580;5.170;2023-02-12T07:01:42;8.10;99.90
47382;DHT22;33128;51.580;5.170;2023-02-12T07:04:08;8.30;99.90
47382;DHT22;33128;51.580;5.170;2023-02-12T07:06:38;8.20;99.90
47382;DHT22;33128;51.580;5.170;2023-02-12T07:09:06;8.30;99.90
47382;DHT22;33128;51.580;5.170;2023-02-12T07:11:33;8.20;99.90
47382;DHT22;33128;51.580;5.170;2023-02-12T07:13:59;8.30;99.90
47382;DHT22;33128;51.580;5.170;2023-02-12T07:16:25;8.00;99.90
47382;DHT22;33128;51.580;5.170;2023-02-12T07:18:51;8.00;99.90
47382;DHT22;33128;51.580;5.170;2023-02-12T07:21:17;7.90;99.90
47382;DHT22;33128;51.580;5.170;2023-02-12T07:23:50;7.90;99.90
47382;DHT22;33128;51.580;5.170;2023-02-12T07:26:16;8.00;99.90
47382;DHT22;33128;51.580;5.170;2023-02-12T07:28:42;8.20;99.90
47382;DHT22;33128;51.580;5.170;2023-02-12T07:31:11;8.30;99.90
47382;DHT22;33128;51.580;5.170;2023-02-12T07:33:37;8.20;99.90
47382;DHT22;33128;51.580;5.170;2023-02-12T07:36:05;8.10;99.90
47382;DHT22;33128;51.580;5.170;2023-02-12T07:38:31;8.30;99.90
47382;DHT22;33128;51.580;5.170;2023-02-12T07:41:14;8.40;99.90
47382;DHT22;33128;51.580;5.170;2023-02-12T07:43:42;8.50;99.90
47382;DHT22;33128;51.580;5.170;2023-02-12T07:46:16;8.40;99.90
47382;DHT22;33128;51.580;5.170;2023-02-12T07:48:43;8.30;99.90
47382;DHT22;33128;51.580;5.170;2023-02-12T07:51:12;8.10;99.90
47382;DHT22;33128;51.580;5.170;2023-02-12T07:53:38;8.10;99.90
47382;DHT22;33128;51.580;5.170;2023-02-12T07:56:09;8.10;99.90
47382;DHT22;33128;51.580;5.170;2023-02-12T07:58:35;8.20;99.90
47382;DHT22;33128;51.580;5.170;2023-02-12T08:03:41;8.20;99.90
47382;DHT22;33128;51.580;5.170;2023-02-12T08:06:15;8.40;99.90
47382;DHT22;33128;51.580;5.170;2023-02-12T08:08:42;8.50;99.90
47382;DHT22;33128;51.580;5.170;2023-02-12T08:11:08;8.40;99.90
47382;DHT22;33128;51.580;5.170;2023-02-12T08:13:35;8.20;99.90
47382;DHT22;33128;51.580;5.170;2023-02-12T08:16:10;8.10;99.90
47382;DHT22;33128;51.580;5.170;2023-02-12T08:18:36;8.10;99.90
47382;DHT22;33128;51.580;5.170;2023-02-12T08:21:04;8.20;99.90
47382;DHT22;33128;51.580;5.170;2023-02-12T08:23:30;8.30;99.90
47382;DHT22;33128;51.580;5.170;2023-02-12T08:26:04;8.10;99.90
47382;DHT22;33128;51.580;5.170;2023-02-12T08:28:30;8.20;99.90
47382;DHT22;33128;51.580;5.170;2023-02-12T08:31:04;8.20;99.90
47382;DHT22;33128;51.580;5.170;2023-02-12T08:33:30;8.00;99.90
47382;DHT22;33128;51.580;5.170;2023-02-12T08:36:10;8.10;99.90
47382;DHT22;33128;51.580;5.170;2023-02-12T08:38:37;8.10;99.90
47382;DHT22;33128;51.580;5.170;2023-02-12T08:41:05;8.30;99.90
47382;DHT22;33128;51.580;5.170;2023-02-12T08:43:32;8.30;99.90
47382;DHT22;33128;51.580;5.170;2023-02-12T08:46:21;8.30;99.90
47382;DHT22;33128;51.580;5.170;2023-02-12T08:48:47;8.40;99.90
47382;DHT22;33128;51.580;5.170;2023-02-12T08:51:21;8.20;99.90
47382;DHT22;33128;51.580;5.170;2023-02-12T08:53:51;8.30;99.90
47382;DHT22;33128;51.580;5.170;2023-02-12T08:56:17;8.20;99.90
47382;DHT22;33128;51.580;5.170;2023-02-12T08:58:44;8.30;99.90
47382;DHT22;33128;51.580;5.170;2023-02-12T09:01:17;8.30;99.90
47382;DHT22;33128;51.580;5.170;2023-02-12T09:03:43;8.30;99.90
47382;DHT22;33128;51.580;5.170;2023-02-12T09:06:09;8.40;99.90
47382;DHT22;33128;51.580;5.170;2023-02-12T09:08:36;8.60;99.90
47382;DHT22;33128;51.580;5.170;2023-02-12T09:11:30;8.50;99.90
47382;DHT22;33128;51.580;5.170;2023-02-12T09:14:00;8.50;99.90
47382;DHT22;33128;51.580;5.170;2023-02-12T09:16:31;8.60;99.90
47382;DHT22;33128;51.580;5.170;2023-02-12T09:18:57;8.50;99.90
47382;DHT22;33128;51.580;5.170;2023-02-12T09:21:24;8.40;99.90
47382;DHT22;33128;51.580;5.170;2023-02-12T09:23:50;8.50;99.90
47382;DHT22;33128;51.580;5.170;2023-02-12T09:26:18;8.50;99.90
47382;DHT22;33128;51.580;5.170;2023-02-12T09:28:48;8.60;99.90
47382;DHT22;33128;51.580;5.170;2023-02-12T09:31:16;8.40;99.90
47382;DHT22;33128;51.580;5.170;2023-02-12T09:33:43;8.70;99.90
47382;DHT22;33128;51.580;5.170;2023-02-12T09:36:15;9.00;99.90
47382;DHT22;33128;51.580;5.170;2023-02-12T09:38:42;8.80;99.90
47382;DHT22;33128;51.580;5.170;2023-02-12T09:43:43;8.70;99.90
47382;DHT22;33128;51.580;5.170;2023-02-12T09:46:32;8.90;99.90
47382;DHT22;33128;51.580;5.170;2023-02-12T09:49:24;9.20;99.90
47382;DHT22;33128;51.580;5.170;2023-02-12T09:51:52;9.10;99.90
47382;DHT22;33128;51.580;5.170;2023-02-12T09:54:25;9.30;99.90
47382;DHT22;33128;51.580;5.170;2023-02-12T09:56:55;9.30;99.90
47382;DHT22;33128;51.580;5.170;2023-02-12T09:59:36;9.20;99.90
47382;DHT22;33128;51.580;5.170;2023-02-12T10:02:10;9.30;99.90
47382;DHT22;33128;51.580;5.170;2023-02-12T10:04:36;9.50;99.90
47382;DHT22;33128;51.580;5.170;2023-02-12T10:07:05;9.50;99.90
47382;DHT22;33128;51.580;5.170;2023-02-12T10:15:30;9.50;99.90
47382;DHT22;33128;51.580;5.170;2023-02-12T10:21:26;9.40;99.90
47382;DHT22;33128;51.580;5.170;2023-02-12T10:26:34;9.40;99.90
47382;DHT22;33128;51.580;5.170;2023-02-12T10:29:10;9.30;99.90
47382;DHT22;33128;51.580;5.170;2023-02-12T10:31:42;9.40;99.90
47382;DHT22;33128;51.580;5.170;2023-02-12T10:36:47;9.40;99.90
47382;DHT22;33128;51.580;5.170;2023-02-12T10:39:25;9.40;99.90
47382;DHT22;33128;51.580;5.170;2023-02-12T10:42:00;9.50;99.90
47382;DHT22;33128;51.580;5.170;2023-02-12T10:44:27;9.60;99.90
47382;DHT22;33128;51.580;5.170;2023-02-12T10:46:53;9.70;99.90
47382;DHT22;33128;51.580;5.170;2023-02-12T10:49:19;9.60;99.90
47382;DHT22;33128;51.580;5.170;2023-02-12T10:52:07;9.50;99.90
47382;DHT22;33128;51.580;5.170;2023-02-12T10:57:25;9.40;99.90
47382;DHT22;33128;51.580;5.170;2023-02-12T10:59:53;9.60;99.90
47382;DHT22;33128;51.580;5.170;2023-02-12T11:02:31;9.40;99.90
47382;DHT22;33128;51.580;5.170;2023-02-12T11:04:58;9.60;99.90
47382;DHT22;33128;51.580;5.170;2023-02-12T11:07:25;9.50;99.90
47382;DHT22;33128;51.580;5.170;2023-02-12T11:09:53;9.60;99.90
47382;DHT22;33128;51.580;5.170;2023-02-12T11:12:35;9.60;99.90
47382;DHT22;33128;51.580;5.170;2023-02-12T11:15:06;9.70;99.90
47382;DHT22;33128;51.580;5.170;2023-02-12T11:17:39;9.60;99.90
47382;DHT22;33128;51.580;5.170;2023-02-12T11:22:53;9.70;99.90
47382;DHT22;33128;51.580;5.170;2023-02-12T11:25:19;9.90;99.90
47382;DHT22;33128;51.580;5.170;2023-02-12T11:28:05;10.00;99.90
47382;DHT22;33128;51.580;5.170;2023-02-12T11:30:31;9.90;99.90
47382;DHT22;33128;51.580;5.170;2023-02-12T11:36:04;9.80;99.90
47382;DHT22;33128;51.580;5.170;2023-02-12T11:38:36;9.80;99.90
47382;DHT22;33128;51.580;5.170;2023-02-12T11:43:44;10.00;99.90
47382;DHT22;33128;51.580;5.170;2023-02-12T11:46:17;10.00;99.90
47382;DHT22;33128;51.580;5.170;2023-02-12T11:48:45;10.00;99.90
47382;DHT22;33128;51.580;5.170;2023-02-12T11:51:19;10.20;99.90
47382;DHT22;33128;51.580;5.170;2023-02-12T11:53:51;10.00;99.90
47382;DHT22;33128;51.580;5.170;2023-02-12T11:56:18;10.10;99.90
47382;DHT22;33128;51.580;5.170;2023-02-12T11:58:45;10.20;99.90
47382;DHT22;33128;51.580;5.170;2023-02-12T12:01:13;11.60;99.90
47382;DHT22;33128;51.580;5.170;2023-02-12T12:04:07;12.50;99.90
47382;DHT22;33128;51.580;5.170;2023-02-12T12:06:50;13.00;99.90
47382;DHT22;33128;51.580;5.170;2023-02-12T12:12:05;13.60;99.90
47382;DHT22;33128;51.580;5.170;2023-02-12T12:14:46;13.70;99.90
47382;DHT22;33128;51.580;5.170;2023-02-12T12:17:52;13.80;99.90
47382;DHT22;33128;51.580;5.170;2023-02-12T12:20:55;13.90;99.90
47382;DHT22;33128;51.580;5.170;2023-02-12T12:23:43;14.00;99.90
47382;DHT22;33128;51.580;5.170;2023-02-12T12:29:29;14.10;99.90
47382;DHT22;33128;51.580;5.170;2023-02-12T12:32:00;14.20;99.90
47382;DHT22;33128;51.580;5.170;2023-02-12T12:34:30;14.30;99.90
47382;DHT22;33128;51.580;5.170;2023-02-12T12:37:28;14.30;99.90
47382;DHT22;33128;51.580;5.170;2023-02-12T12:42:41;14.40;99.90
47382;DHT22;33128;51.580;5.170;2023-02-12T12:45:31;14.40;99.90
47382;DHT22;33128;51.580;5.170;2023-02-12T12:53:19;14.40;99.90
47382;DHT22;33128;51.580;5.170;2023-02-12T13:13:00;14.60;99.90
47382;DHT22;33128;51.580;5.170;2023-02-12T13:18:16;14.60;99.90
47382;DHT22;33128;51.580;5.170;2023-02-12T13:21:05;14.50;99.90
47382;DHT22;33128;51.580;5.170;2023-02-12T13:29:15;14.30;99.90
47382;DHT22;33128;51.580;5.170;2023-02-12T13:31:48;14.20;99.90
47382;DHT22;33128;51.580;5.170;2023-02-12T13:34:16;14.20;99.90
47382;DHT22;33128;51.580;5.170;2023-02-12T13:36:44;14.10;99.90
47382;DHT22;33128;51.580;5.170;2023-02-12T13:39:42;14.10;99.90
47382;DHT22;33128;51.580;5.170;2023-02-12T13:45:24;14.00;99.90
47382;DHT22;33128;51.580;5.170;2023-02-12T13:48:15;14.00;99.90
47382;DHT22;33128;51.580;5.170;2023-02-12T13:50:45;14.00;99.90
47382;DHT22;33128;51.580;5.170;2023-02-12T13:56:32;13.90;99.90
47382;DHT22;33128;51.580;5.170;2023-02-12T13:58:59;13.90;99.90
47382;DHT22;33128;51.580;5.170;2023-02-12T14:01:43;13.90;99.90
47382;DHT22;33128;51.580;5.170;2023-02-12T14:07:11;13.90;99.90
47382;DHT22;33128;51.580;5.170;2023-02-12T14:10:01;13.80;99.90
47382;DHT22;33128;51.580;5.170;2023-02-12T14:12:32;13.80;99.90
47382;DHT22;33128;51.580;5.170;2023-02-12T14:17:54;13.80;99.90
47382;DHT22;33128;51.580;5.170;2023-02-12T14:20:29;13.80;99.90
47382;DHT22;33128;51.580;5.170;2023-02-12T14:27:54;13.80;99.90
47382;DHT22;33128;51.580;5.170;2023-02-12T14:30:25;13.80;99.90
47382;DHT22;33128;51.580;5.170;2023-02-12T14:37:58;13.80;99.90
47382;DHT22;33128;51.580;5.170;2023-02-12T14:43:00;13.80;99.90
47382;DHT22;33128;51.580;5.170;2023-02-12T14:45:33;13.80;99.90
47382;DHT22;33128;51.580;5.170;2023-02-12T14:47:59;13.80;99.90
47382;DHT22;33128;51.580;5.170;2023-02-12T14:50:40;13.80;99.90
47382;DHT22;33128;51.580;5.170;2023-02-12T14:53:24;13.80;99.90
47382;DHT22;33128;51.580;5.170;2023-02-12T14:55:51;13.80;99.90
47382;DHT22;33128;51.580;5.170;2023-02-12T14:58:22;13.80;99.90
47382;DHT22;33128;51.580;5.170;2023-02-12T15:00:51;13.80;99.90
47382;DHT22;33128;51.580;5.170;2023-02-12T15:03:22;13.80;99.90
47382;DHT22;33128;51.580;5.170;2023-02-12T15:08:52;13.80;99.90
47382;DHT22;33128;51.580;5.170;2023-02-12T15:11:29;13.70;99.90
47382;DHT22;33128;51.580;5.170;2023-02-12T15:14:03;13.70;99.90
47382;DHT22;33128;51.580;5.170;2023-02-12T15:19:41;13.70;99.90
47382;DHT22;33128;51.580;5.170;2023-02-12T15:22:35;13.70;99.90
47382;DHT22;33128;51.580;5.170;2023-02-12T15:27:51;13.70;99.90
47382;DHT22;33128;51.580;5.170;2023-02-12T15:30:21;13.70;99.90
47382;DHT22;33128;51.580;5.170;2023-02-12T15:32:49;13.70;99.90
47382;DHT22;33128;51.580;5.170;2023-02-12T15:35:33;13.70;99.90
47382;DHT22;33128;51.580;5.170;2023-02-12T15:37:59;13.60;99.90
47382;DHT22;33128;51.580;5.170;2023-02-12T15:40:28;13.60;99.90
47382;DHT22;33128;51.580;5.170;2023-02-12T15:42:56;13.60;99.90
47382;DHT22;33128;51.580;5.170;2023-02-12T15:45:28;13.60;99.90
47382;DHT22;33128;51.580;5.170;2023-02-12T15:50:35;13.60;99.90
47382;DHT22;33128;51.580;5.170;2023-02-12T15:53:09;13.60;99.90
47382;DHT22;33128;51.580;5.170;2023-02-12T15:55:40;13.60;99.90
47382;DHT22;33128;51.580;5.170;2023-02-12T15:58:23;13.60;99.90
47382;DHT22;33128;51.580;5.170;2023-02-12T16:00:51;13.60;99.90
47382;DHT22;33128;51.580;5.170;2023-02-12T16:03:20;13.60;99.90
47382;DHT22;33128;51.580;5.170;2023-02-12T16:05:47;13.50;99.90
47382;DHT22;33128;51.580;5.170;2023-02-12T16:08:15;13.50;99.90
47382;DHT22;33128;51.580;5.170;2023-02-12T16:10:44;13.50;99.90
47382;DHT22;33128;51.580;5.170;2023-02-12T16:13:16;13.50;99.90
47382;DHT22;33128;51.580;5.170;2023-02-12T16:15:42;13.50;99.90
47382;DHT22;33128;51.580;5.170;2023-02-12T16:18:22;13.50;99.90
47382;DHT22;33128;51.580;5.170;2023-02-12T16:21:22;13.50;99.90
47382;DHT22;33128;51.580;5.170;2023-02-12T16:23:43;13.40;99.90
47382;DHT22;33128;51.580;5.170;2023-02-12T16:26:24;13.50;99.90
47382;DHT22;33128;51.580;5.170;2023-02-12T16:28:52;13.40;99.90
47382;DHT22;33128;51.580;5.170;2023-02-12T16:31:19;13.50;99.90
47382;DHT22;33128;51.580;5.170;2023-02-12T16:33:50;13.50;99.90
47382;DHT22;33128;51.580;5.170;2023-02-12T16:38:55;13.40;99.90
47382;DHT22;33128;51.580;5.170;2023-02-12T16:41:30;13.40;99.90
47382;DHT22;33128;51.580;5.170;2023-02-12T16:46:26;13.40;99.90
47382;DHT22;33128;51.580;5.170;2023-02-12T16:48:53;13.40;99.90
47382;DHT22;33128;51.580;5.170;2023-02-12T16:51:34;13.40;99.90
47382;DHT22;33128;51.580;5.170;2023-02-12T16:54:02;13.40;99.90
47382;DHT22;33128;51.580;5.170;2023-02-12T16:56:35;13.40;99.90
47382;DHT22;33128;51.580;5.170;2023-02-12T16:59:03;13.40;99.90
47382;DHT22;33128;51.580;5.170;2023-02-12T17:01:30;13.40;99.90
47382;DHT22;33128;51.580;5.170;2023-02-12T17:03:59;13.40;99.90
47382;DHT22;33128;51.580;5.170;2023-02-12T17:06:32;13.30;99.90
47382;DHT22;33128;51.580;5.170;2023-02-12T17:08:59;13.40;99.90
47382;DHT22;33128;51.580;5.170;2023-02-12T17:11:26;13.40;99.90
47382;DHT22;33128;51.580;5.170;2023-02-12T17:13:53;13.30;99.90
47382;DHT22;33128;51.580;5.170;2023-02-12T17:16:21;13.30;99.90
47382;DHT22;33128;51.580;5.170;2023-02-12T17:18:48;13.30;99.90
47382;DHT22;33128;51.580;5.170;2023-02-12T17:21:32;13.30;99.90
47382;DHT22;33128;51.580;5.170;2023-02-12T17:24:03;13.30;99.90
47382;DHT22;33128;51.580;5.170;2023-02-12T17:26:29;13.30;99.90
47382;DHT22;33128;51.580;5.170;2023-02-12T17:28:55;13.30;99.90
47382;DHT22;33128;51.580;5.170;2023-02-12T17:31:32;13.30;99.90
47382;DHT22;33128;51.580;5.170;2023-02-12T17:33:58;13.30;99.90
47382;DHT22;33128;51.580;5.170;2023-02-12T17:36:24;13.30;99.90
47382;DHT22;33128;51.580;5.170;2023-02-12T17:38:50;13.30;99.90
47382;DHT22;33128;51.580;5.170;2023-02-12T17:41:18;13.30;99.90
47382;DHT22;33128;51.580;5.170;2023-02-12T17:43:44;13.30;99.90
47382;DHT22;33128;51.580;5.170;2023-02-12T17:46:18;13.30;99.90
47382;DHT22;33128;51.580;5.170;2023-02-12T17:48:44;13.30;99.90
47382;DHT22;33128;51.580;5.170;2023-02-12T17:51:10;13.30;99.90
47382;DHT22;33128;51.580;5.170;2023-02-12T17:53:37;13.30;99.90
47382;DHT22;33128;51.580;5.170;2023-02-12T17:56:03;13.30;99.90
47382;DHT22;33128;51.580;5.170;2023-02-12T17:58:32;13.30;99.90
47382;DHT22;33128;51.580;5.170;2023-02-12T18:01:06;13.30;99.90
47382;DHT22;33128;51.580;5.170;2023-02-12T18:03:32;13.30;99.90
47382;DHT22;33128;51.580;5.170;2023-02-12T18:05:59;13.30;99.90
47382;DHT22;33128;51.580;5.170;2023-02-12T18:08:25;13.30;99.90
47382;DHT22;33128;51.580;5.170;2023-02-12T18:10:51;13.20;99.90
47382;DHT22;33128;51.580;5.170;2023-02-12T18:13:17;13.30;99.90
47382;DHT22;33128;51.580;5.170;2023-02-12T18:15:43;13.20;99.90
47382;DHT22;33128;51.580;5.170;2023-02-12T18:18:08;13.30;99.90
47382;DHT22;33128;51.580;5.170;2023-02-12T18:20:35;13.30;99.90
47382;DHT22;33128;51.580;5.170;2023-02-12T18:23:01;13.30;99.90
47382;DHT22;33128;51.580;5.170;2023-02-12T18:25:28;13.20;99.90
47382;DHT22;33128;51.580;5.170;2023-02-12T18:27:53;13.30;99.90
47382;DHT22;33128;51.580;5.170;2023-02-12T18:30:19;13.30;99.90
47382;DHT22;33128;51.580;5.170;2023-02-12T18:32:46;13.30;99.90